Timeline UpdatesTrip UpdatesNews PostsPvt PostsTravel TipsAdmin PostsConv PostsFollowed PostsChat RequestsBlog PostsPNR Posts

Disclaimer
Search
 
 
Fri Apr 25, 2014 04:13:41 ISTHomeTrainsΣChainsAtlasPNRForumGalleryNewsFAQTripsMembersLoginFeedback
No Recent News for this Train
Other Trains in the News **new
Latest...
Will remain cancelled between Bhiwani and Hisar on 28/01/2013 due to work of Road Under Bridge(RUB), only run between Jaipur and Bhiwani.
Sun Jan 27, 2013 (08:08PM)
⇐ Return Journey: Train# 59721

59722/Hisar Jn-Jaipur Jn Passenger (UnReserved)

Jul 16 2013 (12:41AM)
Change Departure Station:
Change Arrival Station:
Post a Train Travel TipPost a Train Travel Tip **new
Post a Comment/Question/Picture/VideoPost a Comment/Question/Picture/Video
Pantry/Catering
✕ NO Pantry Car
✕ NO Catering
RSA - Rake Sharing
Rake/Coach Composition
Loco
News    PNR    Forum    Time-Table    Availability    Fare Chart    Map    Arr/Dep History    Trips    Gallery    ΣChains    X/O    Timeline    
Travel Time: 7h 41m    35 halts    Distance: 327 km    Avg Speed: 42 km/hr
Type: Passenger
Zone: NWR/North Western
Departs @ 14:05 (Avg 12m late)
Platform# ???
SMTWTFS
Hisar Junction/HSR 
Arrives @ 21:46 (Avg 29m late)
Platform# ???
SMTWTFS
Banskho/BSKO 

35 halts. 45 intermediate Stations between Hisar Junction and Banskho

Show ALL intermediate Stations  Show Old Time-Table

#CodeStation NameX/OArrivesAvgDepartsAvgHaltPFDay#KmSpeedElevZoneAddress
1HSR»Hisar Junction (6)»  -14:05+12--10.057215mNWRHisar, Haryana
2STDSatrod  14:16+2014:17+211m--110.558215mNWRHisar, Haryana
3HNSHansi (1)  14:30+2414:31+251m1123.138217mNWRHissar, Haryana
4AUNAurang Nagar  14:40+2614:41+261m--128.950216mNWRAurang Nagar, Haryana
5JKZJitakheri  14:46+2514:47+271m--133.154217mNWRBhiwani, Haryana
6BWKBawani Khera  14:57+2714:58+281m--142.063215mNWRBawani Khera, Haryana
7BNWBhiwani Junction (3)X  15:15+2715:25+2410m--160.068216mNWRBhiwani, Haryana
8MHUManheru (1)  15:37+2615:38+271m1173.666216mNWRBhiwani, Haryana
9CKDCharkhi Dadri (1)  15:50+2715:51+291m1186.962217mNWRDist. Bhiwani, Haryana
10JRLJharili (1)  16:05+2716:06+281m11101.240234mNWRJhajjar, Haryana
11SDRASudharana (1)16:18+2516:19+261m11109.369230mNWRSudharana, Haryana
12KSIKosli (1)  16:24+2616:25+271m11115.045236mNWRTumna Rd, Haryana
13NLQNangal Pathani Halt (1)  16:33+2516:34+261m11121.043231mNWRNangal Pathani, Haryana
14JTSJatusana (1)  16:40+2516:41+261m11125.461243mNWRNanagal Pathani Rd, Haryana
15KGBSKishangarh Balawas (1)  16:50+2516:51+291m11134.517240mNWRKishengarh, Haryana
16RERewari Junction (8)  17:20+2417:25+275m51142.957245mNWRRewari, Haryana
17BWLBawalX  17:41+3017:42+311m--1158.155266mNWRBawal, Haryana
18MJNLMajri Nangal  17:49+3117:50+311m--1164.655273mNWRState Highway 52, Rajasthan
19AIAAjarakaX  17:57+3117:58+311m--1171.053280mNWRAjaraka, Rajasthan
20KNARKhanpur AhirX  18:05+3118:06+311m--1177.247284mNWRMDR 61, Rajasthan
21HSIHarsauli  18:13+3018:14+311m--1182.852287mNWRHarsoli, Rajasthan
22KRHKhairthal (2)  18:23+3318:24+331m21190.554305mNWRKhairthal, Rajasthan
23GALGhatla  18:32+3318:33+331m--1197.655308mNWRState Highway 14, Rajasthan
24PSLParisalX  18:40+3318:41+341m--1204.168289mNWRKhairthal, Rajasthan
25AWRAlwar Junction (2)X  18:53+4018:56+453m21217.757267mNWRAlwar, Rajasthan
26MWWMahwa (1)  19:05+4619:06+491m11226.264264mNWRAlwar, Rajasthan
27MKHMalakhera (1)X  19:16+4919:17+521m11236.847265mNWRMala Khera, Rajasthan
28DGWDhigawara (1)  19:30+4819:31+501m11247.046278mNWRBaswa, Rajasthan
29RHGRajgarh (2)  19:40+5019:41+531m--1253.849303mNWRRajgarh, Rajasthan
30SRRGSurergoth (1)X  19:48+5219:49+521m11259.553308mNWRState Highway 25, Rajasthan
31BUBaswa (1)  19:56+5219:57+541m11265.748291mNWRAlwar, Rajasthan
32GLNAGulana (1)  20:04+5220:05+521m11271.442279mNWRState Highway 25, Rajasthan
33BKIBandikui Junction (6)X  20:15+4720:20+535m--1278.352283mNWRBandikui, Rajasthan
34ARNAArnia (2)  20:27+5820:28+1:081m--1284.446288mNWRBandikui, Rajasthan
35KVGMKolvagram (2)  20:35+1:0420:36+1:081m--1289.770294mNWRBandikui, Rajasthan
36DODausa (2)XO  20:51+1:0420:52+1:091m11307.122333mNWRDausa, Rajasthan
37BSKO•Banskho (2)•21:46+2921:47+311m--1326.547362mNWRJaipur, Rajasthan
38BAIBassi (3)O21:59+2922:00+331m--1336.073352mNWRJaipur, Rajasthan
39KWPKhatipura (2)22:13+2822:14+321m--1351.851364mNWRGandhinagar, Rajasthan
40GTJTGetor Jagatpura (2)X22:21+2822:22+311m--1357.741389mNWRJaipur, Rajasthan
41GADJJaipur Gandhinagar (2)22:30+2622:31+301m--1363.114426mNWRJaipur, Rajasthan
42JPJaipur Junction (7)22:55+20---1368.6-434mNWRJaipur, Rajasthan
Scroll to Top
Scroll to Bottom